sim
Sign-in with your pilot id or email,
or register
Callsign
Passwort

Schedule Details

Flight Number: DLH1613
Departure: Warsaw Chopin Airport (EPWA) at 11:50
Arrival: Munich Airport (EDDM) at 13:30
Route: Lufthansa Passenger Schedule. Enter filed route here before submitting Pirep.

Weather Information
Getting current METAR information for EPWA 281200Z 11012KT CAVOK 17/08 Q1015 NOSIG
Getting current METAR information for EDDM 281150Z 27004KT 240V300 9999 FEW010 BKN040 10/07 Q1012 NOSIG

Schedule Frequency

Route Map